Time;durP1;ratioP1;P1;durP2;ratioP2;P2;SDS_P1;SDS_P2;PMS_P1;PMS_P2;Temp;Humidity;BMP_temperature;BMP_pressure;BME280_temperature;BME280_humidity;BME280_pressure;Samples;Min_cycle;Max_cycle;Signal;HPM_P1;HPM_P2
2021/03/10 00:00:31;;;;;;;42.70;24.77;;;5.30;99.90;;;;;;4991865;28;20644;-68
2021/03/10 00:02:56;;;;;;;41.60;24.47;;;5.40;99.90;;;;;;4991566;28;20499;-67
2021/03/10 00:05:23;;;;;;;41.97;25.50;;;5.40;99.90;;;;;;4991611;28;20173;-65
2021/03/10 00:07:48;;;;;;;41.00;24.57;;;5.30;99.90;;;;;;4991628;28;20189;-66
2021/03/10 00:10:14;;;;;;;41.07;24.10;;;5.30;99.90;;;;;;4991787;28;20408;-69
2021/03/10 00:12:41;;;;;;;47.53;26.37;;;5.20;99.90;;;;;;4991184;28;20192;-67
2021/03/10 00:15:09;;;;;;;44.50;25.97;;;5.10;99.90;;;;;;4991165;28;20204;-66
2021/03/10 00:17:35;;;;;;;38.33;25.13;;;4.90;99.90;;;;;;4991421;28;20439;-69
2021/03/10 00:20:00;;;;;;;39.70;24.50;;;4.90;99.90;;;;;;4991450;28;20424;-68
2021/03/10 00:22:26;;;;;;;41.60;26.00;;;4.90;99.90;;;;;;4991603;28;20247;-66
2021/03/10 00:24:52;;;;;;;41.93;24.40;;;4.90;99.90;;;;;;4991166;28;20181;-67
2021/03/10 00:27:24;;;;;;;37.80;23.97;;;5.00;99.90;;;;;;4991314;28;20699;-68
2021/03/10 00:29:54;;;;;;;38.20;24.20;;;5.00;99.90;;;;;;5009946;28;20549;-66
2021/03/10 00:32:21;;;;;;;45.37;25.47;;;4.90;99.90;;;;;;5010995;28;20451;-66
2021/03/10 00:34:47;;;;;;;41.03;25.33;;;4.70;99.90;;;;;;5011084;28;20407;-67
2021/03/10 00:37:14;;;;;;;42.30;26.60;;;4.70;99.90;;;;;;5010882;28;20458;-67
2021/03/10 00:39:40;;;;;;;42.67;25.50;;;4.60;99.90;;;;;;4993319;28;20619;-66
2021/03/10 00:42:06;;;;;;;43.27;25.60;;;4.60;99.90;;;;;;5010801;28;20423;-66
2021/03/10 00:44:32;;;;;;;43.40;26.77;;;4.50;99.90;;;;;;5010635;28;20173;-67
2021/03/10 00:46:57;;;;;;;38.63;25.10;;;4.60;99.90;;;;;;5010826;28;20769;-68
2021/03/10 00:49:23;;;;;;;45.20;25.33;;;4.80;99.90;;;;;;5010826;28;20704;-68
2021/03/10 00:51:49;;;;;;;45.50;26.53;;;4.90;99.90;;;;;;5010630;28;20173;-68
2021/03/10 00:54:15;;;;;;;45.57;27.13;;;4.90;99.90;;;;;;5010949;28;20529;-67
2021/03/10 00:56:40;;;;;;;45.53;25.93;;;4.90;99.90;;;;;;5011984;28;20354;-67
2021/03/10 00:59:06;;;;;;;45.40;26.70;;;4.90;99.90;;;;;;5010784;28;20188;-68
2021/03/10 01:01:31;;;;;;;43.83;26.93;;;4.80;99.90;;;;;;5010730;28;20586;-69
2021/03/10 01:03:57;;;;;;;45.83;26.33;;;4.70;99.90;;;;;;5010400;28;20733;-66
2021/03/10 01:06:25;;;;;;;45.17;25.93;;;4.70;99.90;;;;;;5010754;28;20264;-69
2021/03/10 01:08:51;;;;;;;41.57;25.23;;;4.60;99.90;;;;;;5009306;28;20411;-67
2021/03/10 01:11:17;;;;;;;39.47;24.83;;;4.70;99.90;;;;;;5010581;28;20497;-69
2021/03/10 01:13:43;;;;;;;42.37;25.57;;;4.70;99.90;;;;;;5010577;28;20423;-68
2021/03/10 01:16:09;;;;;;;42.03;26.33;;;4.70;99.90;;;;;;5010489;28;20559;-66
2021/03/10 01:18:35;;;;;;;46.20;26.10;;;4.90;99.90;;;;;;5010103;28;20439;-68
2021/03/10 01:21:00;;;;;;;43.67;25.77;;;4.80;99.90;;;;;;5010358;28;20184;-67
2021/03/10 01:23:27;;;;;;;43.53;25.77;;;4.80;99.90;;;;;;5009722;28;20204;-66
2021/03/10 01:25:52;;;;;;;42.37;25.23;;;4.80;99.90;;;;;;4992371;28;20219;-68
2021/03/10 01:28:18;;;;;;;39.60;24.93;;;5.00;99.90;;;;;;5010736;28;20478;-67
2021/03/10 01:30:43;;;;;;;42.57;26.37;;;5.10;99.90;;;;;;5010532;28;20176;-68
2021/03/10 01:33:09;;;;;;;37.30;24.60;;;5.20;99.90;;;;;;5010376;28;20235;-68
2021/03/10 01:35:35;;;;;;;40.80;26.13;;;5.10;99.90;;;;;;5011012;28;20180;-67
2021/03/10 01:38:00;;;;;;;42.30;25.67;;;5.10;99.90;;;;;;5014376;28;20173;-67
2021/03/10 01:40:26;;;;;;;44.37;25.80;;;5.00;99.90;;;;;;5014374;28;20176;-68
2021/03/10 01:42:52;;;;;;;41.43;25.67;;;4.90;99.90;;;;;;5014354;28;20207;-67
2021/03/10 01:45:18;;;;;;;41.63;25.83;;;4.70;99.90;;;;;;5014510;28;20181;-65
2021/03/10 01:47:46;;;;;;;43.23;27.70;;;4.70;99.90;;;;;;5014358;28;20172;-67
2021/03/10 01:50:17;;;;;;;44.77;25.93;;;4.70;99.90;;;;;;5014186;28;20451;-68
2021/03/10 01:52:42;;;;;;;42.00;25.13;;;4.80;99.90;;;;;;5014075;28;20442;-66
2021/03/10 01:55:09;;;;;;;39.43;25.87;;;4.80;99.90;;;;;;5014009;28;20735;-68
2021/03/10 01:57:35;;;;;;;41.80;24.90;;;4.90;99.90;;;;;;5005397;28;20347;-67
2021/03/10 02:00:02;;;;;;;38.70;24.67;;;4.80;99.90;;;;;;5000115;28;20984;-65
2021/03/10 02:02:27;;;;;;;43.20;25.83;;;4.80;99.90;;;;;;5014003;28;20466;-66
2021/03/10 02:04:55;;;;;;;44.50;25.63;;;4.80;99.90;;;;;;5013959;28;20431;-67
2021/03/10 02:07:31;;;;;;;39.63;23.90;;;4.70;99.90;;;;;;5014011;28;20173;-66
2021/03/10 02:10:06;;;;;;;38.10;24.67;;;4.50;99.90;;;;;;5013926;28;20427;-68
2021/03/10 02:12:50;;;;;;;43.93;25.87;;;4.50;99.90;;;;;;5014035;28;20423;-68
2021/03/10 02:15:24;;;;;;;44.50;24.97;;;4.50;99.90;;;;;;4994364;28;20428;-68
2021/03/10 02:17:54;;;;;;;38.70;24.47;;;4.50;99.90;;;;;;4994352;28;20508;-69
2021/03/10 02:20:29;;;;;;;41.97;25.50;;;4.50;99.90;;;;;;4994400;28;20762;-69
2021/03/10 02:23:19;;;;;;;40.90;24.60;;;4.40;99.90;;;;;;4994082;28;20459;-66
2021/03/10 02:26:26;;;;;;;46.60;27.13;;;4.50;99.90;;;;;;4993998;28;20412;-66
2021/03/10 02:28:54;;;;;;;43.53;26.13;;;4.60;99.90;;;;;;4993907;28;20533;-67
2021/03/10 02:31:21;;;;;;;42.00;26.37;;;4.60;99.90;;;;;;4994201;28;20454;-68
2021/03/10 02:33:47;;;;;;;41.43;25.97;;;4.60;99.90;;;;;;4993885;28;20416;-67
2021/03/10 02:36:14;;;;;;;41.73;26.53;;;4.50;99.90;;;;;;4994054;28;20750;-68
2021/03/10 02:38:45;;;;;;;41.37;26.57;;;4.60;99.90;;;;;;5010566;28;20231;-66
2021/03/10 02:41:11;;;;;;;43.07;27.57;;;4.70;99.90;;;;;;5013343;28;20416;-68
2021/03/10 02:43:38;;;;;;;45.57;27.40;;;4.70;99.90;;;;;;5013234;28;20454;-66
2021/03/10 02:46:05;;;;;;;41.63;26.23;;;4.90;99.90;;;;;;5013011;28;20415;-68
2021/03/10 02:48:31;;;;;;;38.73;25.00;;;5.00;99.90;;;;;;5002612;28;20413;-66
2021/03/10 02:50:57;;;;;;;44.73;27.00;;;5.00;99.90;;;;;;4994935;28;20496;-68
2021/03/10 02:53:23;;;;;;;40.37;26.07;;;5.00;99.90;;;;;;5013302;28;20447;-67
2021/03/10 02:55:49;;;;;;;47.47;27.57;;;4.90;99.90;;;;;;5012767;28;20184;-68
2021/03/10 02:58:15;;;;;;;43.23;27.30;;;5.00;99.90;;;;;;5014455;28;20451;-68
2021/03/10 03:00:42;;;;;;;41.93;26.27;;;5.10;99.90;;;;;;5013170;28;20419;-67
2021/03/10 03:03:08;;;;;;;41.80;26.53;;;5.20;99.90;;;;;;5012678;28;20188;-68
2021/03/10 03:05:34;;;;;;;43.33;26.30;;;5.20;99.90;;;;;;5013091;28;20411;-67
2021/03/10 03:08:01;;;;;;;44.50;27.17;;;5.30;99.90;;;;;;5012646;28;20192;-69
2021/03/10 03:10:32;;;;;;;41.33;24.87;;;5.30;99.90;;;;;;5012912;28;20416;-66
2021/03/10 03:13:00;;;;;;;46.63;28.87;;;5.20;99.90;;;;;;5012862;28;20415;-68
2021/03/10 03:15:27;;;;;;;47.07;29.67;;;5.10;99.90;;;;;;5012797;28;20427;-67
2021/03/10 03:17:54;;;;;;;46.77;29.33;;;5.10;99.90;;;;;;5012913;28;20434;-69
2021/03/10 03:20:21;;;;;;;45.73;28.40;;;5.10;99.90;;;;;;5012535;28;20524;-67
2021/03/10 03:22:49;;;;;;;55.00;29.87;;;5.10;99.90;;;;;;5012538;28;20481;-69
2021/03/10 03:25:17;;;;;;;48.80;29.47;;;5.10;99.90;;;;;;5011171;28;20423;-67
2021/03/10 03:27:46;;;;;;;45.50;28.90;;;5.20;99.90;;;;;;5012309;28;20407;-67
2021/03/10 03:30:14;;;;;;;48.70;28.77;;;5.20;99.90;;;;;;5012564;28;20451;-67
2021/03/10 03:32:41;;;;;;;45.23;28.67;;;5.10;99.90;;;;;;5011427;28;20415;-67
2021/03/10 03:35:08;;;;;;;47.27;29.83;;;5.30;99.90;;;;;;5012367;28;20489;-67
2021/03/10 03:37:34;;;;;;;47.90;29.07;;;5.20;99.90;;;;;;5012161;28;20412;-67
2021/03/10 03:40:00;;;;;;;44.27;27.47;;;5.20;99.90;;;;;;5012055;28;20499;-68
2021/03/10 03:42:26;;;;;;;50.20;28.67;;;5.20;99.90;;;;;;5012367;28;20833;-69
2021/03/10 03:44:51;;;;;;;48.17;28.83;;;5.20;99.90;;;;;;5012244;28;20254;-64
2021/03/10 03:47:24;;;;;;;46.03;28.57;;;5.30;99.90;;;;;;5012176;28;20236;-67
2021/03/10 03:49:50;;;;;;;44.77;28.90;;;5.30;99.90;;;;;;5012149;28;20426;-68
2021/03/10 03:52:16;;;;;;;46.43;28.37;;;5.30;99.90;;;;;;5012022;28;20403;-65
2021/03/10 03:54:42;;;;;;;43.73;28.27;;;5.20;99.90;;;;;;5011677;28;20650;-69
2021/03/10 03:57:15;;;;;;;44.30;29.07;;;5.30;99.90;;;;;;5013249;28;20443;-68
2021/03/10 03:59:47;;;;;;;45.93;30.30;;;5.20;99.90;;;;;;5011243;28;20184;-66
2021/03/10 04:02:13;;;;;;;49.43;28.97;;;5.20;99.90;;;;;;5011737;28;20446;-67
2021/03/10 04:04:38;;;;;;;48.10;28.33;;;5.20;99.90;;;;;;5011730;28;20411;-67
2021/03/10 04:07:04;;;;;;;45.70;28.77;;;5.30;99.90;;;;;;5012021;28;20516;-65
2021/03/10 04:09:29;;;;;;;44.73;27.87;;;5.30;99.90;;;;;;5012016;28;20214;-66
2021/03/10 04:11:55;;;;;;;46.97;29.23;;;5.20;99.90;;;;;;5011782;28;20642;-67
2021/03/10 04:14:21;;;;;;;50.03;28.30;;;5.20;99.90;;;;;;5011882;28;20176;-67
2021/03/10 04:16:46;;;;;;;44.20;27.73;;;5.20;99.90;;;;;;5011497;28;20634;-67
2021/03/10 04:19:12;;;;;;;47.20;28.17;;;5.20;99.90;;;;;;4994096;28;20180;-68
2021/03/10 04:21:38;;;;;;;47.97;28.97;;;5.20;99.90;;;;;;5011428;28;20580;-68
2021/03/10 04:24:05;;;;;;;47.60;29.13;;;5.30;99.90;;;;;;5011501;28;20231;-67
2021/03/10 04:26:31;;;;;;;43.73;27.10;;;5.30;99.90;;;;;;5011869;28;20263;-67
2021/03/10 04:28:56;;;;;;;44.47;27.20;;;5.30;99.90;;;;;;5011420;28;20864;-67
2021/03/10 04:31:22;;;;;;;44.13;27.97;;;5.30;99.90;;;;;;5011706;28;20168;-67
2021/03/10 04:33:47;;;;;;;45.37;28.37;;;5.30;99.90;;;;;;5011381;28;20184;-66
2021/03/10 04:36:13;;;;;;;44.50;27.70;;;5.30;99.90;;;;;;5011575;28;20208;-67
2021/03/10 04:38:39;;;;;;;42.20;26.03;;;5.40;99.90;;;;;;5011548;28;20250;-69
2021/03/10 04:41:05;;;;;;;45.73;27.37;;;5.40;99.90;;;;;;5011543;28;20188;-67
2021/03/10 04:43:31;;;;;;;46.00;27.37;;;5.40;99.90;;;;;;5011597;28;20583;-68
2021/03/10 04:45:56;;;;;;;42.97;27.20;;;5.30;99.90;;;;;;5011144;28;20176;-65
2021/03/10 04:48:22;;;;;;;44.40;28.63;;;5.40;99.90;;;;;;5011323;28;20446;-68
2021/03/10 04:50:48;;;;;;;49.83;29.23;;;5.30;99.90;;;;;;5011261;28;20302;-66
2021/03/10 04:53:14;;;;;;;44.97;28.23;;;5.30;99.90;;;;;;5010990;28;20180;-67
2021/03/10 04:55:40;;;;;;;47.67;29.17;;;5.30;99.90;;;;;;5011757;28;20512;-67
2021/03/10 04:58:05;;;;;;;48.57;29.23;;;5.30;99.90;;;;;;5012549;28;20212;-67
2021/03/10 05:00:31;;;;;;;48.00;28.93;;;5.30;99.90;;;;;;5011702;28;20215;-70
2021/03/10 05:02:57;;;;;;;50.00;29.10;;;5.40;99.90;;;;;;5011113;28;20200;-65
2021/03/10 05:05:23;;;;;;;48.10;28.13;;;5.40;99.90;;;;;;5011511;28;20534;-66
2021/03/10 05:07:49;;;;;;;45.87;29.37;;;5.40;99.90;;;;;;5011307;28;20180;-66
2021/03/10 05:10:15;;;;;;;42.13;28.30;;;5.40;99.90;;;;;;5011615;28;20235;-67
2021/03/10 05:12:40;;;;;;;44.57;28.87;;;5.40;99.90;;;;;;5014718;28;20179;-68
2021/03/10 05:15:07;;;;;;;47.80;29.30;;;5.40;99.90;;;;;;5015172;28;20242;-69
2021/03/10 05:17:34;;;;;;;47.30;29.87;;;5.50;99.90;;;;;;5015148;28;20247;-68
2021/03/10 05:20:00;;;;;;;46.40;28.30;;;5.50;99.90;;;;;;5015275;28;20458;-68
2021/03/10 05:22:26;;;;;;;47.70;29.63;;;5.50;99.90;;;;;;4997131;28;20451;-69
2021/03/10 05:24:52;;;;;;;46.70;29.27;;;5.40;99.90;;;;;;4996730;28;20176;-68
2021/03/10 05:27:18;;;;;;;49.37;30.10;;;5.40;99.90;;;;;;5015242;28;20415;-67
2021/03/10 05:29:44;;;;;;;47.17;29.60;;;5.50;99.90;;;;;;5014454;28;20485;-68
2021/03/10 05:32:10;;;;;;;49.87;29.83;;;5.50;99.90;;;;;;5014688;28;20180;-67
2021/03/10 05:34:36;;;;;;;54.50;30.47;;;5.40;99.90;;;;;;5014777;28;20992;-66
2021/03/10 05:37:03;;;;;;;46.80;29.77;;;5.50;99.90;;;;;;5014979;28;20205;-67
2021/03/10 05:39:29;;;;;;;47.07;27.63;;;5.40;99.90;;;;;;5014548;28;20642;-65
2021/03/10 05:41:59;;;;;;;50.00;30.73;;;5.40;99.90;;;;;;5014301;28;20438;-68
2021/03/10 05:44:25;;;;;;;48.00;31.23;;;5.40;99.90;;;;;;5014193;28;20231;-68
2021/03/10 05:46:54;;;;;;;46.73;30.07;;;5.40;99.90;;;;;;5014400;28;20502;-67
2021/03/10 05:49:21;;;;;;;51.20;29.40;;;5.40;99.90;;;;;;5013904;28;20412;-66
2021/03/10 05:51:48;;;;;;;48.93;30.13;;;5.40;99.90;;;;;;5014091;28;20418;-65
2021/03/10 05:54:14;;;;;;;51.00;31.37;;;5.40;99.90;;;;;;5014185;28;20497;-66
2021/03/10 05:56:46;;;;;;;52.60;31.37;;;5.30;99.90;;;;;;5014321;28;20459;-68
2021/03/10 05:59:18;;;;;;;55.07;32.17;;;5.30;99.90;;;;;;5030131;28;20211;-67
2021/03/10 06:01:43;;;;;;;55.73;33.57;;;5.30;99.90;;;;;;5034095;28;20418;-66
2021/03/10 06:04:09;;;;;;;59.80;32.50;;;5.20;99.90;;;;;;5032172;28;20458;-67
2021/03/10 06:06:37;;;;;;;52.30;32.30;;;5.20;99.90;;;;;;5033792;28;20186;-67
2021/03/10 06:09:29;;;;;;;50.03;30.43;;;5.20;99.90;;;;;;5030735;28;20206;-65
2021/03/10 06:11:56;;;;;;;54.40;31.13;;;5.20;99.90;;;;;;5029230;28;20418;-66
2021/03/10 06:14:23;;;;;;;54.70;32.13;;;5.20;99.90;;;;;;5029746;28;20442;-66
2021/03/10 06:17:03;;;;;;;53.93;32.87;;;5.20;99.90;;;;;;5029284;28;20446;-67
2021/03/10 06:19:28;;;;;;;49.03;30.70;;;5.30;99.90;;;;;;5013274;28;20510;-67
2021/03/10 06:21:54;;;;;;;53.27;32.57;;;5.40;99.90;;;;;;5013421;28;20550;-68
2021/03/10 06:24:30;;;;;;;53.67;31.97;;;5.40;99.90;;;;;;5022943;28;20228;-67
2021/03/10 06:26:56;;;;;;;58.23;32.73;;;5.40;99.90;;;;;;5027405;28;20222;-66
2021/03/10 06:29:22;;;;;;;52.40;32.50;;;5.40;99.90;;;;;;5032663;28;20414;-67
2021/03/10 06:31:48;;;;;;;52.33;31.33;;;5.40;99.90;;;;;;5033317;28;20168;-68
2021/03/10 06:34:15;;;;;;;55.63;33.80;;;5.50;99.90;;;;;;5026802;28;20172;-67
2021/03/10 06:36:49;;;;;;;55.23;34.07;;;5.50;99.90;;;;;;5032937;28;20186;-66
2021/03/10 06:39:27;;;;;;;55.07;33.30;;;5.50;99.90;;;;;;5031505;28;20418;-66
2021/03/10 06:41:54;;;;;;;57.47;33.20;;;5.50;99.90;;;;;;5032932;28;20771;-66
2021/03/10 06:44:25;;;;;;;53.23;33.60;;;5.50;99.90;;;;;;5032800;28;20446;-66
2021/03/10 06:46:58;;;;;;;58.77;34.30;;;5.50;99.90;;;;;;5020556;28;20911;-67
2021/03/10 06:49:29;;;;;;;58.13;33.57;;;5.60;99.90;;;;;;5032841;28;20464;-66
2021/03/10 06:51:59;;;;;;;56.00;34.73;;;5.60;99.90;;;;;;5012898;28;20975;-67
2021/03/10 06:54:30;;;;;;;56.17;33.57;;;5.60;99.90;;;;;;5031408;28;20422;-67
2021/03/10 06:57:06;;;;;;;55.80;33.87;;;5.60;99.90;;;;;;5015081;28;20916;-68
2021/03/10 06:59:42;;;;;;;57.83;33.67;;;5.60;99.90;;;;;;4995793;28;20451;-67
2021/03/10 07:02:19;;;;;;;59.03;33.37;;;5.60;99.90;;;;;;4993414;28;20761;-67
2021/03/10 07:04:47;;;;;;;58.77;35.30;;;5.70;99.90;;;;;;4975872;28;20431;-67
2021/03/10 07:07:16;;;;;;;57.20;35.23;;;5.80;99.90;;;;;;4975458;28;20428;-68
2021/03/10 07:09:42;;;;;;;59.67;34.23;;;5.80;99.90;;;;;;4992843;28;20507;-67
2021/03/10 07:12:12;;;;;;;57.93;35.33;;;5.80;99.90;;;;;;4992769;28;20770;-66
2021/03/10 07:14:39;;;;;;;59.53;34.83;;;5.90;99.90;;;;;;4992824;28;20794;-66
2021/03/10 07:17:09;;;;;;;55.70;33.97;;;6.00;99.90;;;;;;4992802;28;20425;-69
2021/03/10 07:19:34;;;;;;;53.80;33.93;;;6.10;99.90;;;;;;4992659;28;20922;-68
2021/03/10 07:22:29;;;;;;;56.03;33.27;;;6.20;99.90;;;;;;4997819;28;20416;-67
2021/03/10 07:25:06;;;;;;;53.97;33.17;;;6.20;99.90;;;;;;4992568;28;20263;-68
2021/03/10 07:27:51;;;;;;;61.03;34.70;;;6.30;99.90;;;;;;4992220;28;20459;-67
2021/03/10 07:30:17;;;;;;;54.03;33.67;;;6.20;99.90;;;;;;4992009;28;20420;-67
2021/03/10 07:32:43;;;;;;;61.30;33.57;;;6.30;99.90;;;;;;4992115;28;20781;-67
2021/03/10 07:35:11;;;;;;;59.23;33.83;;;6.30;99.90;;;;;;4991693;28;20507;-67
2021/03/10 07:37:39;;;;;;;56.63;35.00;;;6.40;99.90;;;;;;4992231;28;20177;-68
2021/03/10 07:40:16;;;;;;;55.17;33.37;;;6.40;99.90;;;;;;4991990;28;20452;-67
2021/03/10 07:42:55;;;;;;;52.13;32.80;;;6.50;99.90;;;;;;4991663;28;20495;-66
2021/03/10 07:45:40;;;;;;;55.00;33.03;;;6.60;99.90;;;;;;4991835;28;20809;-68
2021/03/10 07:48:06;;;;;;;53.57;33.60;;;6.60;99.90;;;;;;4991797;28;20426;-67
2021/03/10 07:50:44;;;;;;;51.10;32.70;;;6.70;99.90;;;;;;4995195;28;20419;-67
2021/03/10 07:53:09;;;;;;;54.57;32.77;;;6.70;99.90;;;;;;5011601;28;20266;-67
2021/03/10 07:55:46;;;;;;;54.90;33.07;;;6.70;99.90;;;;;;5011301;28;20419;-67
2021/03/10 07:58:12;;;;;;;53.50;33.47;;;6.90;99.90;;;;;;5012755;28;20211;-68
2021/03/10 08:00:40;;;;;;;50.50;32.00;;;6.90;99.90;;;;;;5011573;28;20423;-69
2021/03/10 08:03:06;;;;;;;47.87;30.63;;;7.00;99.90;;;;;;5011293;28;20972;-67
2021/03/10 08:05:33;;;;;;;49.67;32.30;;;7.00;99.90;;;;;;5011135;28;20407;-67
2021/03/10 08:08:07;;;;;;;50.60;32.63;;;7.10;99.90;;;;;;5010867;28;20523;-67
2021/03/10 08:10:34;;;;;;;52.27;31.73;;;7.10;99.90;;;;;;5010925;28;20450;-68
2021/03/10 08:13:12;;;;;;;50.13;32.00;;;7.20;99.90;;;;;;5011196;28;20423;-68
2021/03/10 08:15:37;;;;;;;48.77;31.43;;;7.20;99.90;;;;;;5010784;28;20774;-68
2021/03/10 08:18:04;;;;;;;52.30;31.20;;;7.30;99.90;;;;;;5010810;28;20515;-67
2021/03/10 08:20:32;;;;;;;52.13;32.70;;;7.40;99.90;;;;;;5010639;28;20251;-67
2021/03/10 08:22:58;;;;;;;55.17;33.77;;;7.40;99.90;;;;;;5010763;28;20448;-66
2021/03/10 08:25:24;;;;;;;49.87;32.47;;;7.50;99.90;;;;;;4993276;28;20408;-66
2021/03/10 08:27:49;;;;;;;47.53;30.63;;;7.50;99.90;;;;;;5010812;28;20445;-67
2021/03/10 08:30:21;;;;;;;47.07;30.40;;;7.60;99.90;;;;;;5010850;28;20469;-69
2021/03/10 08:32:47;;;;;;;47.57;30.10;;;7.70;99.90;;;;;;4993100;28;20196;-68
2021/03/10 08:35:16;;;;;;;50.33;31.60;;;7.70;99.90;;;;;;4993109;28;20772;-67
2021/03/10 08:37:42;;;;;;;47.80;31.63;;;7.70;99.90;;;;;;5010717;28;20176;-67
2021/03/10 08:40:18;;;;;;;56.07;34.40;;;7.80;99.90;;;;;;5010673;28;20504;-68
2021/03/10 08:42:45;;;;;;;52.00;34.73;;;7.80;99.90;;;;;;5010354;28;20462;-66
2021/03/10 08:45:21;;;;;;;55.07;32.97;;;7.90;99.90;;;;;;5012732;28;20415;-69
2021/03/10 08:48:02;;;;;;;49.93;33.50;;;7.90;99.90;;;;;;5017158;28;20430;-66
2021/03/10 08:50:33;;;;;;;50.53;32.87;;;7.90;99.90;;;;;;4998078;28;20478;-66
2021/03/10 08:52:59;;;;;;;50.80;33.07;;;7.90;99.90;;;;;;5017380;28;20781;-66
2021/03/10 08:55:26;;;;;;;50.10;32.50;;;8.00;99.90;;;;;;5017172;28;20418;-67
2021/03/10 08:57:53;;;;;;;52.43;33.83;;;8.10;99.90;;;;;;5017443;28;20250;-68
2021/03/10 09:00:22;;;;;;;47.87;31.17;;;8.20;99.90;;;;;;5017226;28;20427;-68
2021/03/10 09:02:49;;;;;;;51.90;33.00;;;8.20;99.90;;;;;;5016952;28;20536;-66
2021/03/10 09:05:16;;;;;;;50.80;32.37;;;8.30;99.90;;;;;;5017585;28;20474;-68
2021/03/10 09:07:42;;;;;;;49.57;32.23;;;8.40;99.90;;;;;;5016951;28;20418;-67
2021/03/10 09:10:11;;;;;;;48.90;33.87;;;8.50;99.90;;;;;;5017476;28;20458;-67
2021/03/10 09:12:46;;;;;;;53.70;32.77;;;8.50;99.90;;;;;;5035396;28;20417;-67
2021/03/10 09:15:16;;;;;;;50.67;32.53;;;8.60;99.90;;;;;;5037062;28;20526;-67
2021/03/10 09:17:42;;;;;;;47.87;30.93;;;8.70;99.90;;;;;;5036774;28;20414;-67
2021/03/10 09:20:21;;;;;;;46.07;31.67;;;8.90;99.90;;;;;;5035209;28;20187;-67
2021/03/10 09:22:48;;;;;;;44.83;30.10;;;9.00;99.90;;;;;;5017835;28;20257;-66
2021/03/10 09:25:17;;;;;;;43.00;29.47;;;9.10;99.90;;;;;;5036855;28;20417;-67
2021/03/10 09:27:42;;;;;;;43.80;28.90;;;9.20;99.90;;;;;;5027011;28;20477;-68
2021/03/10 09:30:16;;;;;;;44.33;30.13;;;9.20;99.90;;;;;;5017072;28;20416;-67
2021/03/10 09:32:46;;;;;;;47.27;29.47;;;9.30;99.90;;;;;;5035986;28;20572;-67
2021/03/10 09:35:30;;;;;;;38.63;26.00;;;9.50;99.90;;;;;;5036748;28;20205;-67
2021/03/10 09:38:17;;;;;;;40.67;27.73;;;9.50;99.90;;;;;;5036499;28;20442;-66
2021/03/10 09:40:45;;;;;;;37.13;25.50;;;9.50;99.90;;;;;;5036480;28;20456;-67
2021/03/10 09:43:22;;;;;;;37.30;24.80;;;9.40;99.90;;;;;;5018641;28;20451;-67
2021/03/10 09:45:49;;;;;;;38.80;26.03;;;9.50;99.90;;;;;;5026349;28;20807;-68
2021/03/10 09:48:28;;;;;;;34.73;24.33;;;9.40;99.90;;;;;;5016775;28;20498;-67
2021/03/10 09:51:04;;;;;;;29.27;14.37;;;9.40;99.70;;;;;;5035568;28;20418;-66
2021/03/10 09:53:30;;;;;;;34.60;23.40;;;9.30;97.90;;;;;;5036448;28;20414;-67
2021/03/10 09:56:08;;;;;;;33.10;22.73;;;9.30;99.20;;;;;;5030097;28;20485;-66
2021/03/10 09:58:48;;;;;;;35.63;22.73;;;9.40;99.10;;;;;;5032376;28;20548;-68
2021/03/10 10:01:14;;;;;;;31.07;21.20;;;9.50;97.50;;;;;;5013387;28;20424;-68
2021/03/10 10:03:40;;;;;;;31.47;19.83;;;9.60;96.20;;;;;;5018836;28;20516;-67
2021/03/10 10:06:07;;;;;;;28.20;19.80;;;9.70;94.30;;;;;;5013334;28;20177;-67
2021/03/10 10:08:35;;;;;;;26.63;18.53;;;9.90;92.90;;;;;;5031765;28;20175;-66
2021/03/10 10:11:03;;;;;;;24.97;15.63;;;10.10;92.90;;;;;;5033095;28;20176;-66
2021/03/10 10:13:29;;;;;;;19.00;14.07;;;10.10;89.90;;;;;;5015828;28;20415;-69
2021/03/10 10:15:55;;;;;;;24.67;15.17;;;10.30;89.30;;;;;;5032992;28;20180;-67
2021/03/10 10:18:20;;;;;;;25.97;13.57;;;10.30;90.10;;;;;;5032737;28;20249;-66
2021/03/10 10:20:46;;;;;;;18.60;12.90;;;10.50;84.60;;;;;;5032615;28;20199;-68
2021/03/10 10:23:12;;;;;;;17.90;12.87;;;10.60;83.20;;;;;;5012267;28;20310;-67
2021/03/10 10:25:37;;;;;;;21.67;15.03;;;10.60;80.70;;;;;;5010770;28;20185;-67
2021/03/10 10:28:03;;;;;;;25.57;14.73;;;10.70;82.40;;;;;;5012986;28;20255;-67
2021/03/10 10:30:29;;;;;;;18.83;11.73;;;10.70;83.00;;;;;;5012863;28;20348;-67
2021/03/10 10:32:54;;;;;;;14.40;10.53;;;10.70;78.70;;;;;;5016448;28;20191;-67
2021/03/10 10:35:20;;;;;;;13.17;8.77;;;10.70;79.40;;;;;;5028236;28;20276;-68
2021/03/10 10:37:46;;;;;;;12.33;9.53;;;10.60;74.90;;;;;;5012681;28;20646;-67
2021/03/10 10:40:18;;;;;;;15.13;10.77;;;10.60;76.60;;;;;;5013736;28;20180;-66
2021/03/10 10:42:44;;;;;;;15.43;11.20;;;10.70;78.80;;;;;;5018070;28;20200;-67
2021/03/10 10:45:11;;;;;;;22.67;14.73;;;10.80;77.20;;;;;;5012714;28;20554;-68
2021/03/10 10:47:37;;;;;;;15.70;10.77;;;10.80;78.60;;;;;;5012454;28;20177;-66
2021/03/10 10:50:06;;;;;;;14.27;9.77;;;10.90;77.40;;;;;;5012307;28;20255;-68
2021/03/10 10:52:33;;;;;;;15.90;12.07;;;10.90;76.10;;;;;;5031186;28;20510;-67
2021/03/10 10:54:59;;;;;;;23.83;14.50;;;10.80;77.80;;;;;;5032267;28;20186;-67
2021/03/10 10:57:24;;;;;;;20.03;15.30;;;10.80;79.50;;;;;;5031118;28;20206;-67
2021/03/10 10:59:50;;;;;;;19.03;13.47;;;10.80;79.80;;;;;;5032108;28;20191;-67
2021/03/10 11:02:16;;;;;;;19.13;12.97;;;10.90;78.70;;;;;;5031913;28;20709;-65
2021/03/10 11:04:41;;;;;;;21.17;14.60;;;10.70;73.80;;;;;;5032020;28;20200;-65
2021/03/10 11:07:07;;;;;;;20.97;14.23;;;10.80;79.10;;;;;;5031718;28;20641;-68
2021/03/10 11:09:40;;;;;;;21.50;14.33;;;10.80;78.20;;;;;;5030442;28;20707;-68
2021/03/10 11:12:09;;;;;;;21.07;14.37;;;10.80;77.10;;;;;;5021489;28;20574;-67
2021/03/10 11:14:35;;;;;;;20.90;13.10;;;10.90;77.70;;;;;;5011906;28;20530;-66
2021/03/10 11:17:01;;;;;;;20.80;15.03;;;10.90;75.40;;;;;;5011897;28;20172;-67
2021/03/10 11:19:27;;;;;;;21.87;14.37;;;10.80;77.70;;;;;;5011942;28;20195;-68
2021/03/10 11:21:52;;;;;;;21.50;15.57;;;10.80;76.20;;;;;;5030598;28;20653;-67
2021/03/10 11:24:18;;;;;;;19.07;11.27;;;10.70;78.00;;;;;;5031352;28;20200;-67
2021/03/10 11:26:44;;;;;;;20.40;13.50;;;10.80;75.20;;;;;;5031647;28;20175;-67
2021/03/10 11:29:10;;;;;;;18.97;13.63;;;10.70;77.10;;;;;;5031452;28;20229;-66
2021/03/10 11:31:36;;;;;;;19.00;12.37;;;10.70;76.90;;;;;;5031407;28;20176;-67
2021/03/10 11:34:02;;;;;;;16.57;11.33;;;10.90;77.90;;;;;;5031647;28;20172;-67
2021/03/10 11:36:28;;;;;;;19.30;11.77;;;10.90;74.20;;;;;;5031310;28;20187;-67
2021/03/10 11:38:54;;;;;;;18.17;12.00;;;11.10;71.30;;;;;;5031342;28;20175;-66
2021/03/10 11:41:19;;;;;;;13.97;10.20;;;11.20;71.90;;;;;;5031168;28;20191;-67
2021/03/10 11:43:45;;;;;;;34.20;22.40;;;11.30;68.70;;;;;;5031121;28;20191;-66
2021/03/10 11:46:11;;;;;;;39.10;23.73;;;11.30;84.60;;;;;;5031294;28;20178;-66
2021/03/10 11:48:36;;;;;;;34.13;25.10;;;11.20;86.50;;;;;;5031026;28;20183;-68
2021/03/10 11:51:02;;;;;;;15.63;11.10;;;11.30;87.50;;;;;;5031053;28;20717;-67
2021/03/10 11:53:28;;;;;;;17.47;13.23;;;11.30;68.60;;;;;;5030752;28;20187;-66
2021/03/10 11:55:53;;;;;;;16.80;11.67;;;11.30;70.00;;;;;;5031174;28;20520;-66
2021/03/10 11:58:19;;;;;;;17.77;13.00;;;11.30;70.70;;;;;;5031116;28;20270;-66
2021/03/10 12:00:45;;;;;;;26.13;18.40;;;11.50;71.60;;;;;;5030638;28;20660;-68
2021/03/10 12:03:10;;;;;;;30.23;19.93;;;11.40;76.90;;;;;;5030794;28;20661;-67
2021/03/10 12:05:36;;;;;;;22.67;16.50;;;11.40;78.40;;;;;;5030727;28;20176;-67
2021/03/10 12:08:02;;;;;;;14.83;10.47;;;11.30;78.50;;;;;;5011336;28;20161;-67
2021/03/10 12:10:28;;;;;;;14.60;10.57;;;11.30;71.90;;;;;;5011338;28;20255;-67
2021/03/10 12:12:53;;;;;;;34.57;22.87;;;11.30;69.50;;;;;;5011107;28;20172;-67
2021/03/10 12:15:19;;;;;;;29.53;20.90;;;11.30;80.80;;;;;;5011326;28;20184;-69
2021/03/10 12:17:45;;;;;;;29.20;21.00;;;11.10;84.10;;;;;;5010816;28;21619;-67
2021/03/10 12:20:12;;;;;;;28.20;15.43;;;10.90;83.70;;;;;;5010832;28;20176;-67
2021/03/10 12:22:38;;;;;;;26.90;20.13;;;10.90;83.80;;;;;;5010756;28;20277;-66
2021/03/10 12:25:06;;;;;;;30.83;21.50;;;10.80;85.70;;;;;;5011050;28;20173;-67
2021/03/10 12:27:31;;;;;;;29.63;21.63;;;10.80;86.40;;;;;;5010692;28;20169;-67
2021/03/10 12:29:58;;;;;;;31.37;20.67;;;10.90;88.20;;;;;;5011192;28;20251;-68
2021/03/10 12:32:27;;;;;;;27.10;20.53;;;10.80;88.60;;;;;;5010713;28;20227;-67
2021/03/10 12:34:53;;;;;;;28.07;18.83;;;10.80;86.90;;;;;;5010541;28;20180;-67
2021/03/10 12:37:19;;;;;;;32.00;15.87;;;10.90;84.70;;;;;;5010430;28;20424;-70
2021/03/10 12:39:45;;;;;;;20.50;13.83;;;10.90;84.10;;;;;;5009938;28;20537;-67